Wet Dream — MHCN9 — position and weather

sailwx.info

Track history (hours):
 
Tides and Currents Weather Stations Pressure Air Temp Water Temp Dewpoint Dewpoint Depression Visibility Wind Speed Wind Dir Waves Ship Positions

Wet Dream

Last reported at 2017-Nov-19 10:35 UTC. Time now 2017-Nov-20 21:26 UTC.
Position N 17°01' W 061°46'.

Length 12 m.

Type: Sailing vessel. MMSI: 235024071.

Date/timePositionNaut miles runAvg speedWind from/ knotsBaromVisibWave heightAir tempDewpointWater temp
2017-Nov-19 10:35N 17°01' W 061°46'0 1.6
2017-Nov-19 10:30N 17°01' W 061°46'1 1.2
2017-Nov-19 10:00N 17°01' W 061°46'0 0.0
2017-Nov-18 19:54N 17°01' W 061°46'2 4.4
2017-Nov-18 19:30N 17°00' W 061°48'2 4.5
2017-Nov-18 19:00N 17°00' W 061°50'1 2.2
2017-Nov-18 18:29N 17°01' W 061°52'2 4.5
2017-Nov-18 18:00N 17°01' W 061°54'3 5.1
2017-Nov-18 17:30N 17°04' W 061°54'1 0.4
2017-Nov-18 15:48N 17°04' W 061°54'1 3.6
2017-Nov-18 15:30N 17°05' W 061°55'2 4.2
2017-Nov-18 15:00N 17°07' W 061°54'2 4.5
2017-Nov-18 14:30N 17°09' W 061°53'2 4.8
2017-Nov-18 14:00N 17°10' W 061°51'3 5.0
2017-Nov-18 13:30N 17°11' W 061°49'2 4.7
2017-Nov-18 13:00N 17°10' W 061°47'2 4.3
2017-Nov-18 12:30N 17°09' W 061°44'1 0.7
2017-Nov-18 11:25N 17°09' W 061°44'0 0.0
2017-Nov-17 18:57N 17°09' W 061°44'0 0.0
2017-Nov-17 15:29N 17°09' W 061°44'2 3.8
2017-Nov-17 15:00N 17°09' W 061°46'2 4.7
2017-Nov-17 14:30N 17°10' W 061°47'2 3.7
2017-Nov-17 14:00N 17°11' W 061°49'2 4.6
2017-Nov-17 13:30N 17°10' W 061°51'2 5.0
2017-Nov-17 13:00N 17°08' W 061°53'0 1.0
2017-Nov-17 12:30N 17°08' W 061°53'0 0.0
2017-Nov-16 15:27N 17°08' W 061°53'2 3.8
2017-Nov-16 15:00N 17°07' W 061°55'2 4.8
2017-Nov-16 14:30N 17°04' W 061°55'3 4.5
2017-Nov-16 13:48N 17°01' W 061°54'1 4.8
2017-Nov-16 13:30N 17°01' W 061°52'2 4.1
2017-Nov-16 13:00N 17°01' W 061°50'0 0.0
2017-Nov-15 18:02N 17°01' W 061°50'0 0.1
2017-Nov-15 17:59N 17°01' W 061°50'2 3.3
2017-Nov-15 17:30N 17°00' W 061°48'2 4.6
2017-Nov-15 17:00N 17°00' W 061°46'1 0.0
2017-Nov-14 18:54N 17°01' W 061°46'1 3.8
2017-Nov-14 18:30N 16°59' W 061°46'3 6.8
2017-Nov-14 18:00N 16°56' W 061°46'4 7.1
2017-Nov-14 17:30N 16°52' W 061°46'4 7.4
2017-Nov-14 17:00N 16°48' W 061°47'3 6.7
2017-Nov-14 16:30N 16°45' W 061°47'4 7.2
2017-Nov-14 16:00N 16°41' W 061°47'4 7.4
2017-Nov-14 15:30N 16°38' W 061°47'4 7.8
2017-Nov-14 15:00N 16°34' W 061°47'4 7.2
2017-Nov-14 14:30N 16°30' W 061°47'4 7.5
2017-Nov-14 13:59N 16°26' W 061°48'4 7.6
2017-Nov-14 13:30N 16°23' W 061°48'3 5.1
2017-Nov-14 12:59N 16°20' W 061°48'  
2017-Nov-09 14:40N 17°00' W 061°46'0 1.8
2017-Nov-09 14:30N 17°00' W 061°46'0 0.1
2017-Nov-09 13:59N 17°00' W 061°46'1 1.5
2017-Nov-09 13:29N 17°01' W 061°47'  
Track history (hours):
 
Tides and Currents Weather Stations Pressure Air Temp Water Temp Dewpoint Dewpoint Depression Visibility Wind Speed Wind Dir Waves Ship Positions

Wet Dream

Last reported at 2017-Nov-19 10:35 UTC. Time now 2017-Nov-20 21:26 UTC.
Position N 17°01' W 061°46'.

Length 12 m.

Type: Sailing vessel. MMSI: 235024071.

Date/timePositionNaut miles runAvg speedWind from/ knotsBaromVisibWave heightAir tempDewpointWater temp
2017-Nov-19 10:35N 17°01' W 061°46'0 1.6
2017-Nov-19 10:30N 17°01' W 061°46'1 1.2
2017-Nov-19 10:00N 17°01' W 061°46'0 0.0
2017-Nov-18 19:54N 17°01' W 061°46'2 4.4
2017-Nov-18 19:30N 17°00' W 061°48'2 4.5
2017-Nov-18 19:00N 17°00' W 061°50'1 2.2
2017-Nov-18 18:29N 17°01' W 061°52'2 4.5
2017-Nov-18 18:00N 17°01' W 061°54'3 5.1
2017-Nov-18 17:30N 17°04' W 061°54'1 0.4
2017-Nov-18 15:48N 17°04' W 061°54'1 3.6
2017-Nov-18 15:30N 17°05' W 061°55'2 4.2
2017-Nov-18 15:00N 17°07' W 061°54'2 4.5
2017-Nov-18 14:30N 17°09' W 061°53'2 4.8
2017-Nov-18 14:00N 17°10' W 061°51'3 5.0
2017-Nov-18 13:30N 17°11' W 061°49'2 4.7
2017-Nov-18 13:00N 17°10' W 061°47'2 4.3
2017-Nov-18 12:30N 17°09' W 061°44'1 0.7
2017-Nov-18 11:25N 17°09' W 061°44'0 0.0
2017-Nov-17 18:57N 17°09' W 061°44'0 0.0
2017-Nov-17 15:29N 17°09' W 061°44'2 3.8
2017-Nov-17 15:00N 17°09' W 061°46'2 4.7
2017-Nov-17 14:30N 17°10' W 061°47'2 3.7
2017-Nov-17 14:00N 17°11' W 061°49'2 4.6
2017-Nov-17 13:30N 17°10' W 061°51'2 5.0
2017-Nov-17 13:00N 17°08' W 061°53'0 1.0
2017-Nov-17 12:30N 17°08' W 061°53'0 0.0
2017-Nov-16 15:27N 17°08' W 061°53'2 3.8
2017-Nov-16 15:00N 17°07' W 061°55'2 4.8
2017-Nov-16 14:30N 17°04' W 061°55'3 4.5
2017-Nov-16 13:48N 17°01' W 061°54'1 4.8
2017-Nov-16 13:30N 17°01' W 061°52'2 4.1
2017-Nov-16 13:00N 17°01' W 061°50'0 0.0
2017-Nov-15 18:02N 17°01' W 061°50'0 0.1
2017-Nov-15 17:59N 17°01' W 061°50'2 3.3
2017-Nov-15 17:30N 17°00' W 061°48'2 4.6
2017-Nov-15 17:00N 17°00' W 061°46'1 0.0
2017-Nov-14 18:54N 17°01' W 061°46'1 3.8
2017-Nov-14 18:30N 16°59' W 061°46'3 6.8
2017-Nov-14 18:00N 16°56' W 061°46'4 7.1
2017-Nov-14 17:30N 16°52' W 061°46'4 7.4
2017-Nov-14 17:00N 16°48' W 061°47'3 6.7
2017-Nov-14 16:30N 16°45' W 061°47'4 7.2
2017-Nov-14 16:00N 16°41' W 061°47'4 7.4
2017-Nov-14 15:30N 16°38' W 061°47'4 7.8
2017-Nov-14 15:00N 16°34' W 061°47'4 7.2
2017-Nov-14 14:30N 16°30' W 061°47'4 7.5
2017-Nov-14 13:59N 16°26' W 061°48'4 7.6
2017-Nov-14 13:30N 16°23' W 061°48'3 5.1
2017-Nov-14 12:59N 16°20' W 061°48'  
2017-Nov-09 14:40N 17°00' W 061°46'0 1.8
2017-Nov-09 14:30N 17°00' W 061°46'0 0.1
2017-Nov-09 13:59N 17°00' W 061°46'1 1.5
2017-Nov-09 13:29N 17°01' W 061°47'  

Dump ship's entire track history